This is the latest recevied weather packets stored in our database for station/object W5HKR. If no packets are shown the sender has not sent any weather packets the latest 1 day(s).
| Time | Temp. | Humidity | Pressure | Rain* | Wind** | Luminosity | Snow |
|---|---|---|---|---|---|---|---|
| 1778030516 | 28.33° C | 74% | 978.3 hPa | 0 mm | 5.36 m/s, 257° | - | - |
| 1778030305 | 28.33° C | 73% | 978 hPa | 0 mm | 5.36 m/s, 269° | - | - |
| 1778030006 | 18.33° C | 91% | 990.6 hPa | 0 mm | 5.36 m/s, 264° | - | - |
| 1778029706 | 18.33° C | 91% | 990.6 hPa | 0 mm | 5.81 m/s, 267° | - | - |
| 1778029437 | 18.33° C | 91% | 990.6 hPa | 0 mm | 5.36 m/s, 268° | - | - |
| 1778029405 | 28.33° C | 72% | 977.6 hPa | 0 mm | 5.81 m/s, 265° | - | - |
| 1778029104 | 28.33° C | 72% | 977.6 hPa | 0 mm | 5.36 m/s, 272° | - | - |
| 1778028805 | 28.89° C | 72% | 977.9 hPa | 0 mm | 5.36 m/s, 268° | - | - |
| 1778028356 | 18.33° C | 91% | 990.6 hPa | 0 mm | 5.36 m/s, 261° | - | - |
| 1778028204 | 28.89° C | 72% | 977.9 hPa | 0 mm | 5.81 m/s, 267° | - | - |
| 1778027906 | 18.33° C | 91% | 990.6 hPa | 0 mm | 5.36 m/s, 267° | - | - |
| 1778027606 | 28.89° C | 71% | 977.6 hPa | 0 mm | 5.36 m/s, 269° | - | - |
| 1778027308 | 18.33° C | 91% | 990.6 hPa | 0 mm | 5.36 m/s, 270° | - | - |
| 1778027276 | 18.33° C | 91% | 990.6 hPa | 0 mm | 5.36 m/s, 270° | - | - |
| 1778027005 | 28.89° C | 71% | 978 hPa | 0 mm | 6.26 m/s, 273° | - | - |
| 1778026706 | 29.44° C | 71% | 978 hPa | 0 mm | 5.81 m/s, 269° | - | - |
| 1778026405 | 18.33° C | 91% | 990.6 hPa | 0 mm | 5.81 m/s, 268° | - | - |
| 1778026196 | 29.44° C | 70% | 977.4 hPa | 0 mm | 5.81 m/s, 271° | - | - |
| 1778026106 | 29.44° C | 70% | 977.6 hPa | 0 mm | 5.36 m/s, 267° | - | - |
| 1778025806 | 29.44° C | 70% | 977.9 hPa | 0 mm | 6.26 m/s, 263° | - | - |
| 1778025506 | 18.33° C | 91% | 990.6 hPa | 0 mm | 6.26 m/s, 276° | - | - |
| 1778025206 | 30° C | 68% | 977.3 hPa | 0 mm | 5.81 m/s, 272° | - | - |
| 1778025116 | 18.33° C | 91% | 990.6 hPa | 0 mm | 5.81 m/s, 274° | - | - |
| 1778024905 | 18.33° C | 91% | 990.6 hPa | 0 mm | 5.81 m/s, 268° | - | - |
| 1778024606 | 18.33° C | 91% | 990.6 hPa | 0 mm | 7.15 m/s, 277° | - | - |
* Rain latest hour (hover to see other rain measurements)
** Current wind speed in m/s (hover to see current wind gust speed)